Time;durP1;ratioP1;P1;durP2;ratioP2;P2;SDS_P1;SDS_P2;PMS_P1;PMS_P2;Temp;Humidity;BMP_temperature;BMP_pressure;BME280_temperature;BME280_humidity;BME280_pressure;Samples;Min_cycle;Max_cycle;Signal;HPM_P1;HPM_P2
2022/02/11 00:07:01;;;;;;;62.08;29.67;;;;;;;4.70;100.00;98496.94;5045911;28;20032;-75
2022/02/11 00:09:27;;;;;;;55.45;28.80;;;;;;;4.78;100.00;98491.97;5017968;28;20029;-74
2022/02/11 00:11:55;;;;;;;54.90;27.15;;;;;;;4.73;100.00;98493.78;5042072;28;20368;-74
2022/02/11 00:14:21;;;;;;;59.75;28.05;;;;;;;4.75;100.00;98503.28;5040964;28;20039;-74
2022/02/11 00:16:47;;;;;;;54.05;29.50;;;;;;;4.72;100.00;98497.53;5034722;28;20104;-74
2022/02/11 00:19:12;;;;;;;53.05;28.10;;;;;;;4.68;100.00;98490.97;5043728;28;20109;-76
2022/02/11 00:21:39;;;;;;;57.95;28.35;;;;;;;4.52;100.00;98491.75;5038517;28;20041;-74
2022/02/11 00:24:04;;;;;;;52.67;26.50;;;;;;;4.52;100.00;98497.16;5053860;28;20029;-74
2022/02/11 00:26:34;;;;;;;54.40;28.80;;;;;;;4.48;100.00;98491.41;5039163;28;20196;-73
2022/02/11 00:31:52;;;;;;;74.38;33.20;;;;;;;4.39;100.00;98492.03;5038926;28;20060;-74
2022/02/11 00:34:21;;;;;;;50.38;27.50;;;;;;;4.40;100.00;98488.28;5040732;28;20037;-73
2022/02/11 00:36:59;;;;;;;54.35;26.55;;;;;;;4.40;100.00;98488.28;5047047;28;20478;-73
2022/02/11 01:03:56;;;;;;;54.22;26.10;;;;;;;4.28;98.06;98469.38;5046000;28;20036;-74
2022/02/11 01:06:23;;;;;;;51.95;26.35;;;;;;;4.17;98.96;98471.06;5044079;28;20120;-74
2022/02/11 01:08:48;;;;;;;48.42;26.23;;;;;;;4.22;98.75;98470.34;5037134;28;20026;-74
2022/02/11 01:11:20;;;;;;;52.72;27.30;;;;;;;4.17;98.57;98464.81;5048760;28;20017;-73
2022/02/11 01:13:46;;;;;;;44.70;25.60;;;;;;;4.16;98.89;98469.44;5037654;28;20017;-74
2022/02/11 01:16:18;;;;;;;53.05;27.20;;;;;;;4.15;99.33;98459.66;5043732;28;20033;-77
2022/02/11 01:18:49;;;;;;;47.17;25.92;;;;;;;4.17;98.95;98462.13;5047642;28;20032;-74
2022/02/11 01:21:22;;;;;;;52.80;27.45;;;;;;;4.12;99.34;98451.19;5049896;28;20036;-73
2022/02/11 01:24:22;;;;;;;51.83;26.35;;;;;;;3.99;100.00;98456.91;5039053;28;20197;-73
2022/02/11 01:50:39;;;;;;;50.22;27.00;;;;;;;4.08;98.11;98448.16;5043172;28;20417;-73
2022/02/11 01:56:49;;;;;;;51.58;25.25;;;;;;;4.15;97.80;98439.91;5037051;28;20033;-73
2022/02/11 02:04:16;;;;;;;43.47;22.75;;;;;;;4.40;95.92;98437.66;5037006;28;20021;-74
2022/02/11 02:09:29;;;;;;;52.45;25.15;;;;;;;4.42;95.85;98432.81;5044345;28;20123;-78
2022/02/11 02:21:09;;;;;;;52.63;24.42;;;;;;;4.37;96.21;98423.78;5040452;28;20076;-74
2022/02/11 02:23:32;;;;;;;52.08;25.65;;;;;;;4.39;95.85;98424.34;5031367;28;20037;-74
2022/02/11 02:26:17;;;;;;;55.75;26.25;;;;;;;4.47;95.88;98432.09;5032784;28;20029;-74
2022/02/11 02:35:39;;;;;;;52.55;23.08;;;;;;;4.39;95.65;98418.94;5051188;28;20086;-73
2022/02/11 02:59:05;;;;;;;56.03;26.35;;;;;;;3.84;99.99;98397.91;5027242;28;20061;-73
2022/02/11 03:01:45;;;;;;;57.13;27.88;;;;;;;3.77;100.00;98394.50;5028182;28;20043;-73
2022/02/11 03:53:38;;;;;;;48.75;27.15;;;;;;;2.93;100.00;98395.97;5032868;28;20462;-73
2022/02/11 04:22:57;;;;;;;49.50;26.70;;;;;;;2.92;100.00;98398.91;5034141;28;20131;-73
2022/02/11 04:55:23;;;;;;;51.65;23.35;;;;;;;2.95;100.00;98376.81;5013739;28;20095;-73
2022/02/11 05:00:33;;;;;;;44.03;23.27;;;;;;;2.94;100.00;98380.59;5013299;28;20045;-73
2022/02/11 05:02:59;;;;;;;35.80;19.42;;;;;;;3.08;100.00;98374.69;5013327;28;20030;-73
2022/02/11 05:05:24;;;;;;;43.88;20.50;;;;;;;3.07;100.00;98377.66;5013153;28;20030;-73
2022/02/11 05:07:50;;;;;;;43.47;20.48;;;;;;;3.04;100.00;98373.53;5012515;28;20041;-72
2022/02/11 05:10:16;;;;;;;38.22;18.98;;;;;;;2.87;100.00;98374.50;5014860;28;20022;-73
2022/02/11 05:12:43;;;;;;;45.22;20.73;;;;;;;2.94;100.00;98386.00;5014872;28;20541;-75
2022/02/11 05:15:10;;;;;;;37.33;20.85;;;;;;;2.90;100.00;98396.44;5012418;28;20103;-75
2022/02/11 05:17:37;;;;;;;40.63;21.20;;;;;;;2.87;100.00;98396.91;5012718;28;20021;-73
2022/02/11 05:20:04;;;;;;;40.60;20.75;;;;;;;2.93;100.00;98395.97;5018651;28;20379;-72
2022/02/11 05:22:30;;;;;;;44.55;21.73;;;;;;;2.94;100.00;98394.09;5032588;28;20470;-72
2022/02/11 05:24:55;;;;;;;39.08;20.67;;;;;;;3.01;100.00;98381.28;5032636;28;20048;-72
2022/02/11 05:27:21;;;;;;;43.50;19.80;;;;;;;2.98;100.00;98377.16;5031974;28;20026;-75
2022/02/11 05:29:46;;;;;;;35.60;19.35;;;;;;;2.89;100.00;98367.78;5032089;28;20032;-72
2022/02/11 05:32:11;;;;;;;44.25;19.45;;;;;;;2.95;100.00;98377.66;5032588;28;20025;-72
2022/02/11 05:34:37;;;;;;;42.13;20.35;;;;;;;2.92;100.00;98372.72;5031120;28;20065;-72
2022/02/11 05:37:02;;;;;;;37.15;20.17;;;;;;;2.84;100.00;98380.34;5031860;28;20024;-74
2022/02/11 05:39:28;;;;;;;40.33;20.33;;;;;;;2.92;100.00;98364.63;5031901;28;20101;-75
2022/02/11 05:41:53;;;;;;;42.35;19.92;;;;;;;2.94;100.00;98376.03;5032127;28;20573;-72
2022/02/11 05:44:18;;;;;;;39.58;19.58;;;;;;;2.95;100.00;98360.59;5030500;28;20025;-72
2022/02/11 05:46:44;;;;;;;39.95;18.63;;;;;;;2.99;100.00;98362.63;5031755;28;20363;-73
2022/02/11 05:49:09;;;;;;;37.72;18.02;;;;;;;2.99;100.00;98362.63;5031858;28;20036;-73
2022/02/11 05:51:35;;;;;;;42.75;19.85;;;;;;;3.07;100.00;98364.16;5032113;28;20032;-73
2022/02/11 05:54:00;;;;;;;44.35;20.38;;;;;;;3.13;100.00;98364.00;5035474;28;20033;-73
2022/02/11 05:56:26;;;;;;;32.97;19.40;;;;;;;3.03;99.20;98358.41;5032203;28;20029;-73
2022/02/11 05:58:51;;;;;;;53.03;26.52;;;;;;;3.03;99.93;98368.38;5031352;28;20056;-73
2022/02/11 06:01:16;;;;;;;46.45;23.02;;;;;;;3.07;99.97;98369.56;5031060;28;20765;-72
2022/02/11 06:03:42;;;;;;;39.50;21.90;;;;;;;3.08;99.35;98372.00;5032217;28;20021;-73
2022/02/11 06:06:07;;;;;;;44.42;19.58;;;;;;;3.08;99.86;98369.28;5032047;28;20045;-73
2022/02/11 06:08:33;;;;;;;39.92;22.02;;;;;;;3.18;99.52;98377.63;5031644;28;20051;-73
2022/02/11 06:10:58;;;;;;;43.38;21.40;;;;;;;3.23;99.04;98380.44;5031814;28;20180;-73
2022/02/11 06:13:24;;;;;;;42.70;22.20;;;;;;;3.18;98.29;98369.53;5031613;28;20067;-73
2022/02/11 06:15:49;;;;;;;38.38;18.75;;;;;;;3.16;98.15;98373.53;5031641;28;20030;-73
2022/02/11 06:18:14;;;;;;;37.85;18.38;;;;;;;3.21;98.14;98379.84;5024987;28;20575;-73
2022/02/11 06:20:40;;;;;;;38.85;17.83;;;;;;;3.02;98.19;98372.13;5021478;28;20512;-73
2022/02/11 06:23:06;;;;;;;33.67;18.90;;;;;;;3.09;98.77;98373.66;5017970;28;20044;-73
2022/02/11 06:25:31;;;;;;;35.25;18.85;;;;;;;3.13;97.72;98377.50;5010482;28;20030;-74
2022/02/11 06:27:57;;;;;;;41.13;18.58;;;;;;;3.15;97.48;98383.50;5011420;28;20033;-72
2022/02/11 06:30:23;;;;;;;37.92;19.08;;;;;;;3.22;97.24;98386.91;5011660;28;20072;-72
2022/02/11 06:32:48;;;;;;;30.50;18.20;;;;;;;3.29;97.16;98383.25;5012167;28;20195;-71
2022/02/11 06:35:14;;;;;;;33.97;18.67;;;;;;;3.33;96.86;98384.41;5011536;28;20101;-72
2022/02/11 06:37:42;;;;;;;40.33;19.85;;;;;;;3.40;96.69;98398.63;5011664;28;20026;-73
2022/02/11 06:40:10;;;;;;;41.83;19.15;;;;;;;3.46;96.01;98401.19;5011193;28;20026;-73
2022/02/11 06:42:37;;;;;;;39.88;19.45;;;;;;;3.50;95.10;98409.66;5011613;28;20037;-76
2022/02/11 06:45:03;;;;;;;40.70;19.20;;;;;;;3.49;94.80;98408.81;5011944;28;20026;-74
2022/02/11 06:47:29;;;;;;;34.25;17.33;;;;;;;3.36;93.74;98400.16;5012393;28;20026;-75
2022/02/11 06:49:54;;;;;;;37.00;19.02;;;;;;;3.37;93.57;98405.34;5013638;28;20052;-75
2022/02/11 06:52:20;;;;;;;37.75;20.35;;;;;;;3.27;94.60;98406.97;5011325;28;20022;-74
2022/02/11 06:54:45;;;;;;;40.08;19.27;;;;;;;3.28;95.10;98406.75;5011142;28;20022;-74
2022/02/11 06:57:11;;;;;;;38.90;18.85;;;;;;;3.34;94.79;98402.28;5014575;28;20045;-75
2022/02/11 06:59:36;;;;;;;41.38;19.17;;;;;;;3.35;94.45;98401.22;5019682;28;20490;-74
2022/02/11 07:02:02;;;;;;;41.50;19.45;;;;;;;3.42;94.49;98397.31;5031777;28;20064;-74
2022/02/11 07:04:29;;;;;;;36.05;18.98;;;;;;;3.41;93.57;98395.69;5019994;28;20021;-74
2022/02/11 07:06:55;;;;;;;46.20;19.33;;;;;;;3.49;93.30;98402.59;5024808;28;20048;-75
2022/02/11 07:09:21;;;;;;;33.95;19.90;;;;;;;3.58;92.74;98403.84;5022231;28;20018;-75
2022/02/11 07:11:46;;;;;;;48.47;25.60;;;;;;;3.54;92.38;98402.72;5018574;28;20024;-75
2022/02/11 07:14:12;;;;;;;50.50;24.73;;;;;;;3.40;92.59;98391.34;5017101;28;20511;-75
2022/02/11 07:16:38;;;;;;;51.50;23.35;;;;;;;3.33;93.61;98392.50;5022482;28;20018;-74
2022/02/11 07:19:03;;;;;;;59.13;23.75;;;;;;;3.51;94.34;98401.28;5019659;28;20025;-74
2022/02/11 07:21:28;;;;;;;45.72;22.02;;;;;;;3.56;93.38;98401.41;5021019;28;20036;-76
2022/02/11 07:23:54;;;;;;;46.10;22.35;;;;;;;3.59;93.13;98402.81;5014524;28;20034;-76
2022/02/11 07:26:19;;;;;;;43.08;20.55;;;;;;;3.54;93.44;98411.63;5011044;28;20033;-74
2022/02/11 07:28:45;;;;;;;56.08;21.00;;;;;;;3.66;93.59;98406.22;5010676;28;20482;-72
2022/02/11 07:31:10;;;;;;;44.17;21.48;;;;;;;3.64;92.65;98398.31;5010564;28;20026;-73
2022/02/11 07:33:36;;;;;;;41.38;19.95;;;;;;;3.64;92.86;98408.31;5014897;28;20179;-74
2022/02/11 07:36:01;;;;;;;40.90;19.38;;;;;;;3.73;92.18;98404.16;5014038;28;20030;-74
2022/02/11 07:38:30;;;;;;;41.95;19.23;;;;;;;3.90;91.51;98407.75;5021487;28;20032;-74
2022/02/11 07:40:56;;;;;;;38.65;19.08;;;;;;;3.75;90.95;98404.75;5010262;28;20037;-74
2022/02/11 07:43:23;;;;;;;53.67;22.88;;;;;;;3.71;91.61;98404.41;5012645;28;20033;-79
2022/02/11 07:45:48;;;;;;;52.17;21.67;;;;;;;3.72;91.98;98405.25;5011451;28;20040;-74
2022/02/11 07:48:13;;;;;;;38.92;21.10;;;;;;;3.81;92.26;98408.38;5010473;28;20546;-75
2022/02/11 07:50:39;;;;;;;40.55;20.98;;;;;;;3.88;91.91;98393.66;5008966;28;20025;-74
2022/02/11 07:53:04;;;;;;;44.97;22.30;;;;;;;4.00;91.30;98399.84;5026635;28;20036;-75
2022/02/11 07:55:30;;;;;;;48.38;20.63;;;;;;;3.98;91.02;98393.03;5029968;28;20079;-74
2022/02/11 07:57:55;;;;;;;44.90;21.77;;;;;;;4.07;90.61;98397.78;5029694;28;20459;-74
2022/02/11 08:00:22;;;;;;;39.42;19.85;;;;;;;4.04;90.61;98390.16;5028380;28;20029;-74
2022/02/11 08:02:48;;;;;;;43.67;22.45;;;;;;;4.00;90.67;98393.59;5030184;28;20029;-74
2022/02/11 08:05:13;;;;;;;43.17;22.40;;;;;;;3.87;91.31;98392.00;5030150;28;20052;-73
2022/02/11 08:07:41;;;;;;;49.53;23.90;;;;;;;3.84;91.27;98395.19;5030041;28;20029;-73
2022/02/11 08:10:07;;;;;;;43.10;21.88;;;;;;;3.95;91.26;98388.91;5029514;28;20524;-73
2022/02/11 08:12:34;;;;;;;47.00;23.20;;;;;;;4.05;90.76;98383.69;5030237;28;20029;-76
2022/02/11 08:15:00;;;;;;;43.90;22.23;;;;;;;3.90;91.23;98379.88;5028944;28;20018;-73
2022/02/11 08:17:26;;;;;;;42.90;20.83;;;;;;;3.94;91.45;98376.47;5029942;28;20025;-74
2022/02/11 08:19:51;;;;;;;43.70;20.65;;;;;;;3.99;91.53;98373.84;5029227;28;20029;-74
2022/02/11 08:22:17;;;;;;;43.47;22.02;;;;;;;4.07;91.08;98376.13;5029896;28;20029;-74
2022/02/11 08:24:42;;;;;;;54.85;22.15;;;;;;;4.19;90.54;98374.22;5026856;28;20064;-73
2022/02/11 08:27:08;;;;;;;36.67;20.27;;;;;;;4.38;89.15;98387.53;5022594;28;20021;-75
2022/02/11 08:29:35;;;;;;;46.13;21.17;;;;;;;4.41;88.44;98387.03;5024129;28;20128;-74
2022/02/11 08:32:00;;;;;;;36.85;20.90;;;;;;;4.49;88.15;98384.72;5028115;28;20020;-74
2022/02/11 08:34:26;;;;;;;37.33;20.23;;;;;;;4.48;87.81;98390.41;5027550;28;20037;-73
2022/02/11 08:36:51;;;;;;;43.72;21.35;;;;;;;4.59;87.20;98374.06;5029095;28;20061;-74
2022/02/11 08:39:18;;;;;;;40.65;20.00;;;;;;;4.64;86.95;98376.84;5031178;28;20399;-74
2022/02/11 08:41:44;;;;;;;43.38;19.75;;;;;;;4.80;86.88;98383.31;5027288;28;20032;-74
2022/02/11 08:44:09;;;;;;;44.92;20.50;;;;;;;4.83;86.56;98386.34;5033053;28;20474;-73
2022/02/11 08:46:34;;;;;;;44.63;21.35;;;;;;;4.93;85.52;98372.16;5027760;28;20033;-73
2022/02/11 08:49:00;;;;;;;38.92;20.17;;;;;;;5.15;84.32;98375.72;5028392;28;20049;-74
2022/02/11 08:51:30;;;;;;;43.05;20.02;;;;;;;5.67;82.19;98375.31;5031480;28;20037;-74
2022/02/11 08:53:56;;;;;;;38.47;19.05;;;;;;;6.24;78.53;98373.78;5031942;28;20057;-75
2022/02/11 08:56:23;;;;;;;40.97;20.02;;;;;;;6.20;77.39;98377.28;5011463;28;20054;-74
2022/02/11 08:58:49;;;;;;;35.88;18.90;;;;;;;6.21;76.28;98371.56;5012417;28;20052;-74
2022/02/11 09:01:14;;;;;;;37.00;19.55;;;;;;;6.52;75.46;98374.56;5034226;28;20030;-75
2022/02/11 09:03:40;;;;;;;38.95;17.80;;;;;;;7.73;71.67;98376.16;5022434;28;20033;-75
2022/02/11 09:06:06;;;;;;;35.67;16.92;;;;;;;9.18;64.77;98373.06;5021488;28;20531;-75
2022/02/11 09:08:33;;;;;;;35.72;17.40;;;;;;;9.43;62.38;98378.47;5019370;28;20526;-75
2022/02/11 09:11:03;;;;;;;36.83;17.80;;;;;;;8.78;63.05;98373.91;5018786;28;20099;-77
2022/02/11 09:13:29;;;;;;;33.50;18.95;;;;;;;8.02;66.13;98384.66;5018256;28;20431;-74
2022/02/11 09:15:55;;;;;;;43.38;17.95;;;;;;;7.41;68.46;98381.72;5014600;28;20180;-74
2022/02/11 09:18:21;;;;;;;40.72;19.90;;;;;;;6.89;71.12;98384.38;5027895;28;20510;-73
2022/02/11 09:20:48;;;;;;;39.38;19.90;;;;;;;6.76;72.43;98386.75;5020296;28;20053;-73
2022/02/11 09:23:14;;;;;;;41.97;19.35;;;;;;;6.74;72.44;98386.16;5018936;28;20022;-73
2022/02/11 09:25:39;;;;;;;44.63;20.30;;;;;;;6.54;73.58;98388.72;5015935;28;20021;-74
2022/02/11 09:28:05;;;;;;;42.00;20.92;;;;;;;6.42;74.55;98383.47;5019947;28;20029;-78
2022/02/11 09:30:31;;;;;;;43.58;22.92;;;;;;;6.40;75.18;98381.00;5021810;28;20101;-74
2022/02/11 09:32:59;;;;;;;41.85;21.02;;;;;;;6.41;75.33;98390.78;5020007;28;20068;-76
2022/02/11 09:35:28;;;;;;;43.55;21.25;;;;;;;6.51;75.03;98381.09;5028573;28;20152;-73
2022/02/11 09:37:56;;;;;;;38.63;20.58;;;;;;;6.59;74.81;98388.75;5025140;28;20681;-73
2022/02/11 09:40:22;;;;;;;39.13;20.60;;;;;;;6.58;74.88;98382.50;5028012;28;20029;-73
2022/02/11 09:42:53;;;;;;;46.10;21.10;;;;;;;6.45;75.26;98391.09;5025250;28;20371;-73
2022/02/11 09:45:20;;;;;;;38.70;20.38;;;;;;;6.41;75.67;98379.09;5019518;28;20130;-75
2022/02/11 09:47:46;;;;;;;43.90;21.20;;;;;;;6.43;75.58;98369.59;5019859;28;20021;-74
2022/02/11 09:50:12;;;;;;;48.42;21.23;;;;;;;6.67;75.08;98364.63;5018849;28;20100;-74
2022/02/11 09:52:43;;;;;;;37.70;20.25;;;;;;;8.44;68.43;98363.53;5025274;28;20030;-75
2022/02/11 09:57:55;;;;;;;39.45;20.48;;;;;;;7.90;68.71;98379.47;5030910;28;20039;-74
2022/02/11 10:00:24;;;;;;;42.25;20.98;;;;;;;7.71;68.87;98355.69;5029794;28;20033;-76
2022/02/11 10:03:17;;;;;;;51.25;20.60;;;;;;;7.60;70.03;98373.91;5031704;28;20059;-76
2022/02/11 10:05:42;;;;;;;41.72;20.52;;;;;;;7.37;70.85;98375.16;5030873;28;20067;-76
2022/02/11 10:08:08;;;;;;;39.13;20.13;;;;;;;7.19;72.01;98372.88;5031477;28;20021;-74
2022/02/11 10:10:39;;;;;;;41.17;20.30;;;;;;;7.02;72.62;98374.94;5032054;28;20102;-77
2022/02/11 10:13:19;;;;;;;39.80;18.88;;;;;;;7.16;72.20;98387.03;5030975;28;20103;-76
2022/02/11 10:15:49;;;;;;;41.85;19.98;;;;;;;7.11;72.65;98391.63;5011944;28;20030;-76
2022/02/11 10:18:17;;;;;;;39.75;19.38;;;;;;;6.96;73.30;98374.09;5017286;28;20029;-75
2022/02/11 10:20:49;;;;;;;43.03;18.90;;;;;;;6.81;74.00;98384.03;5027894;28;20052;-76
2022/02/11 10:23:16;;;;;;;40.38;19.75;;;;;;;6.79;73.92;98386.22;5026807;28;20033;-75
2022/02/11 10:26:06;;;;;;;36.72;19.10;;;;;;;6.68;74.38;98362.75;5031497;28;20018;-76
2022/02/11 10:28:43;;;;;;;38.03;19.67;;;;;;;6.77;74.50;98381.03;5032233;28;20471;-76
2022/02/11 10:31:15;;;;;;;48.75;20.10;;;;;;;6.80;74.47;98383.22;5032656;28;20040;-76
2022/02/11 10:33:53;;;;;;;43.45;21.35;;;;;;;6.82;74.60;98381.09;5033293;28;20029;-75
2022/02/11 10:36:30;;;;;;;42.45;20.08;;;;;;;6.78;75.18;98366.38;5030183;28;20063;-76
2022/02/11 10:39:21;;;;;;;41.75;20.13;;;;;;;6.88;75.07;98363.72;5030956;28;20035;-76
2022/02/11 10:41:55;;;;;;;43.65;19.83;;;;;;;7.18;74.22;98365.81;5035294;28;20111;-76
2022/02/11 10:44:43;;;;;;;43.15;19.40;;;;;;;7.29;74.12;98358.53;5042054;28;20032;-75
2022/02/11 10:47:14;;;;;;;43.63;20.40;;;;;;;7.81;72.71;98370.19;5027397;28;20112;-75
2022/02/11 10:49:43;;;;;;;44.38;21.08;;;;;;;8.40;70.35;98365.16;5036287;28;20170;-74
2022/02/11 10:52:08;;;;;;;46.78;19.95;;;;;;;8.61;68.78;98361.34;5035630;28;20030;-74
2022/02/11 10:54:34;;;;;;;40.95;21.75;;;;;;;8.88;67.77;98363.00;5030498;28;20398;-78
2022/02/11 10:57:02;;;;;;;42.03;22.02;;;;;;;9.03;66.14;98352.88;5027319;28;20030;-76
2022/02/11 10:59:35;;;;;;;38.20;19.95;;;;;;;8.98;65.75;98360.25;5033395;28;20060;-74
2022/02/11 11:02:24;;;;;;;36.78;20.25;;;;;;;9.15;65.11;98352.56;5040453;28;20111;-74
2022/02/11 11:04:52;;;;;;;44.85;21.73;;;;;;;9.03;65.51;98352.88;5041047;28;20041;-74
2022/02/11 11:07:23;;;;;;;44.95;21.23;;;;;;;8.80;66.86;98353.44;5045419;28;20038;-72
2022/02/11 11:09:52;;;;;;;48.90;23.38;;;;;;;8.70;67.74;98352.66;5037140;28;20393;-71
2022/02/11 11:12:21;;;;;;;50.65;27.33;;;;;;;8.63;68.33;98341.19;5037621;28;20043;-71
2022/02/11 11:14:49;;;;;;;54.25;28.98;;;;;;;8.75;68.29;98352.63;5045761;28;20025;-72
2022/02/11 11:17:17;;;;;;;53.63;28.52;;;;;;;8.89;67.84;98351.81;5017150;28;20036;-71
2022/02/11 11:19:43;;;;;;;50.83;28.55;;;;;;;9.19;67.11;98355.56;5039847;28;20108;-72
2022/02/11 11:22:16;;;;;;;51.65;29.60;;;;;;;9.49;65.39;98336.41;5032119;28;20573;-74
2022/02/11 11:24:57;;;;;;;46.05;24.77;;;;;;;9.57;65.18;98347.53;5029579;28;20083;-74
2022/02/11 11:27:53;;;;;;;50.38;24.92;;;;;;;9.62;64.83;98339.31;5017763;28;20847;-75
2022/02/11 11:30:40;;;;;;;61.47;26.93;;;;;;;9.78;64.54;98350.19;5029097;28;20263;-74
2022/02/11 11:33:08;;;;;;;60.15;25.65;;;;;;;9.57;65.86;98346.72;5032364;28;20021;-74
2022/02/11 11:35:45;;;;;;;55.60;27.33;;;;;;;9.46;66.34;98348.66;5039793;28;20542;-75
2022/02/11 11:38:14;;;;;;;44.72;25.83;;;;;;;9.10;68.06;98355.31;5032313;28;20032;-74
2022/02/11 11:41:13;;;;;;;52.55;26.27;;;;;;;9.18;67.88;98338.38;5034213;28;20040;-74
2022/02/11 11:43:52;;;;;;;57.42;25.85;;;;;;;9.44;67.60;98350.03;5029991;28;20041;-78
2022/02/11 11:46:17;;;;;;;52.65;25.50;;;;;;;9.22;68.44;98349.56;5046432;28;20025;-76
2022/02/11 11:49:01;;;;;;;54.35;25.15;;;;;;;9.25;68.91;98347.09;5030895;28;20029;-76
2022/02/11 11:51:51;;;;;;;44.58;23.55;;;;;;;9.39;68.58;98348.16;5034503;28;20393;-76
2022/02/11 11:54:21;;;;;;;38.20;22.05;;;;;;;9.35;68.22;98348.97;5039593;28;20021;-76
2022/02/11 11:57:01;;;;;;;37.55;19.58;;;;;;;9.30;68.30;98349.84;5029997;28;20025;-74
2022/02/11 11:59:35;;;;;;;39.03;20.17;;;;;;;9.31;68.21;98337.81;5019824;28;20444;-76
2022/02/11 12:02:11;;;;;;;42.42;19.95;;;;;;;9.37;68.28;98339.41;5038362;28;20037;-74
2022/02/11 12:04:39;;;;;;;;;;;;;;;9.40;68.39;98343.50;5044513;28;20037;-75
2022/02/11 12:07:11;;;;;;;38.22;19.45;;;;;;;9.30;68.59;98327.19;5046616;28;19917;-75
2022/02/11 12:09:38;;;;;;;41.95;20.50;;;;;;;9.51;68.64;98347.84;5041108;28;20041;-76
2022/02/11 12:12:10;;;;;;;38.30;19.67;;;;;;;9.37;68.83;98341.31;5038160;28;20144;-76
2022/02/11 12:14:38;;;;;;;38.38;19.50;;;;;;;9.50;68.23;98332.53;5034910;28;20053;-74
2022/02/11 12:17:06;;;;;;;41.22;21.45;;;;;;;9.67;67.58;98343.97;5046065;28;20965;-75
2022/02/11 12:19:33;;;;;;;47.47;21.40;;;;;;;9.74;67.48;98346.41;5037837;28;20474;-74
2022/02/11 12:21:59;;;;;;;35.08;19.67;;;;;;;9.76;67.34;98338.72;5043180;28;20033;-75
2022/02/11 12:27:30;;;;;;;43.38;21.90;;;;;;;9.91;67.15;98341.38;5036277;28;20162;-75
2022/02/11 12:30:05;;;;;;;45.72;23.15;;;;;;;9.88;67.21;98340.03;5026071;28;20106;-75
2022/02/11 12:32:40;;;;;;;39.35;19.00;;;;;;;10.05;66.99;98334.22;5040262;28;20436;-75
2022/02/11 12:35:10;;;;;;;39.87;21.57;;;;;;;10.06;67.25;98336.63;5036142;28;20529;-74
2022/02/11 12:37:37;;;;;;;36.38;19.98;;;;;;;10.26;66.66;98330.28;5045097;28;20024;-76
2022/02/11 12:40:19;;;;;;;38.45;21.23;;;;;;;10.15;66.98;98326.78;5043580;28;20052;-75
2022/02/11 12:42:47;;;;;;;46.17;22.50;;;;;;;10.20;67.05;98326.75;5037250;28;20387;-74
2022/02/11 12:45:15;;;;;;;46.25;21.30;;;;;;;10.17;68.10;98323.78;5047665;28;20030;-75
2022/02/11 12:47:41;;;;;;;42.10;20.17;;;;;;;10.45;67.82;98324.94;5030036;28;20057;-76
2022/02/11 12:50:10;;;;;;;33.20;18.00;;;;;;;10.71;68.00;98316.22;5027646;28;20033;-76
2022/02/11 12:52:37;;;;;;;38.20;15.85;;;;;;;11.02;67.64;98315.94;5023399;28;20030;-75
2022/02/11 12:55:16;;;;;;;19.98;12.10;;;;;;;11.20;67.29;98312.47;5028893;28;20033;-75
2022/02/11 12:57:50;;;;;;;22.92;11.13;;;;;;;11.15;67.72;98312.53;5023643;28;20021;-74
2022/02/11 13:00:22;;;;;;;23.77;10.88;;;;;;;11.22;67.74;98307.50;5027686;28;20484;-74
2022/02/11 13:02:50;;;;;;;19.67;10.15;;;;;;;11.38;67.34;98303.50;5020741;28;20030;-74
2022/02/11 13:05:21;;;;;;;21.67;11.57;;;;;;;11.35;67.76;98293.13;5028368;28;20111;-75
2022/02/11 13:07:50;;;;;;;18.77;10.93;;;;;;;11.57;66.98;98301.63;5023854;28;20033;-74
2022/02/11 13:10:33;;;;;;;23.02;11.63;;;;;;;11.77;66.33;98295.91;5025025;28;20048;-76
2022/02/11 13:13:06;;;;;;;28.35;11.13;;;;;;;11.66;66.21;98294.38;5020416;28;20032;-73
2022/02/11 13:15:34;;;;;;;27.42;10.85;;;;;;;11.46;67.66;98288.34;5020476;28;20446;-74
2022/02/11 13:18:08;;;;;;;25.33;11.43;;;;;;;11.37;68.08;98290.91;5017094;28;20109;-73
2022/02/11 13:20:39;;;;;;;27.25;11.70;;;;;;;10.99;69.17;98272.72;5023162;28;20022;-74
2022/02/11 13:23:05;;;;;;;25.98;11.20;;;;;;;11.12;69.63;98283.00;5024213;28;20059;-74
2022/02/11 13:25:32;;;;;;;20.08;11.15;;;;;;;11.23;69.46;98284.50;5028106;28;20032;-74
2022/02/11 13:28:05;;;;;;;27.23;12.40;;;;;;;11.23;69.48;98298.19;5040539;28;20033;-74
2022/02/11 13:30:33;;;;;;;21.88;11.00;;;;;;;11.32;69.76;98298.38;5037699;28;20057;-74
2022/02/11 13:33:16;;;;;;;22.15;10.55;;;;;;;11.28;69.33;98309.06;5033266;28;20064;-74
2022/02/11 13:35:42;;;;;;;22.73;11.75;;;;;;;11.28;69.69;98309.06;5043308;28;20025;-74
2022/02/11 13:38:08;;;;;;;23.08;11.38;;;;;;;11.36;69.41;98299.41;5043362;28;20025;-74
2022/02/11 13:40:33;;;;;;;23.63;11.43;;;;;;;11.42;69.00;98309.22;5041170;28;20083;-74
2022/02/11 13:43:01;;;;;;;26.55;12.02;;;;;;;11.29;70.71;98313.47;5047465;28;20040;-74
2022/02/11 13:45:28;;;;;;;27.52;11.10;;;;;;;10.89;74.09;98314.72;5035366;28;20107;-75
2022/02/11 13:48:09;;;;;;;19.63;9.65;;;;;;;10.68;76.71;98316.78;5024145;28;20028;-74
2022/02/11 13:51:12;;;;;;;25.38;11.13;;;;;;;10.63;76.89;98319.59;5047047;28;20430;-73
2022/02/11 13:53:40;;;;;;;21.77;10.23;;;;;;;10.74;76.97;98329.31;5024446;28;20087;-73
2022/02/11 13:56:13;;;;;;;16.48;10.27;;;;;;;10.74;77.49;98332.06;5026735;28;20025;-75
2022/02/11 13:58:59;;;;;;;28.08;12.23;;;;;;;10.74;78.18;98326.59;5019655;28;20556;-74
2022/02/11 14:01:30;;;;;;;21.70;10.52;;;;;;;10.81;77.09;98331.72;5025793;28;20028;-75
2022/02/11 14:04:07;;;;;;;18.67;10.63;;;;;;;10.76;77.14;98331.78;5044869;28;20037;-73
2022/02/11 14:06:36;;;;;;;26.85;10.70;;;;;;;10.65;77.44;98344.72;5043330;28;20022;-75
2022/02/11 14:09:27;;;;;;;22.60;10.45;;;;;;;10.64;77.97;98332.16;5025695;28;20458;-75
2022/02/11 14:11:54;;;;;;;17.17;9.80;;;;;;;10.39;79.13;98340.56;5027570;28;20052;-74
2022/02/11 14:14:21;;;;;;;19.25;9.90;;;;;;;10.39;79.38;98345.22;5021685;28;20605;-75
2022/02/11 14:16:47;;;;;;;25.27;10.88;;;;;;;10.36;79.69;98343.88;5019400;28;20176;-74
2022/02/11 14:19:24;;;;;;;22.73;10.48;;;;;;;10.45;79.34;98353.09;5022951;28;20021;-76
2022/02/11 14:21:55;;;;;;;19.95;10.52;;;;;;;10.44;78.88;98358.84;5021490;28;20371;-74
2022/02/11 14:24:21;;;;;;;27.48;9.77;;;;;;;10.42;79.32;98352.84;5020649;28;20029;-77
2022/02/11 14:26:47;;;;;;;21.42;9.98;;;;;;;10.39;79.37;98353.41;5020233;28;20028;-76
2022/02/11 14:29:14;;;;;;;21.45;9.95;;;;;;;10.39;79.59;98362.44;5024775;28;20164;-75
2022/02/11 14:31:40;;;;;;;18.83;10.20;;;;;;;10.39;79.92;98347.94;5022809;28;20212;-76
2022/02/11 14:34:09;;;;;;;25.98;11.48;;;;;;;10.37;80.34;98361.88;5024949;28;20052;-74
2022/02/11 14:36:37;;;;;;;28.90;11.10;;;;;;;10.31;80.55;98360.28;5025031;28;20045;-78
2022/02/11 14:39:18;;;;;;;22.65;10.18;;;;;;;10.28;81.41;98360.03;5024521;28;20025;-75
2022/02/11 14:41:49;;;;;;;22.27;10.50;;;;;;;10.30;81.43;98361.41;5021068;28;20033;-75
2022/02/11 14:44:15;;;;;;;28.05;12.00;;;;;;;10.32;81.14;98358.38;5017717;28;20041;-73
2022/02/11 14:46:40;;;;;;;21.83;10.52;;;;;;;10.26;81.74;98360.34;5017434;28;20028;-73
2022/02/11 14:49:06;;;;;;;31.25;10.65;;;;;;;10.31;81.71;98367.69;5019843;28;20467;-73
2022/02/11 14:51:34;;;;;;;22.60;10.98;;;;;;;10.15;81.38;98364.22;5024853;28;20028;-75
2022/02/11 14:54:02;;;;;;;26.30;12.10;;;;;;;10.19;81.49;98368.84;5024816;28;20029;-73
2022/02/11 14:56:27;;;;;;;25.23;11.05;;;;;;;10.18;81.45;98374.59;5023628;28;20040;-73
2022/02/11 14:58:53;;;;;;;19.13;10.43;;;;;;;10.30;80.86;98372.34;5026600;28;20080;-73
2022/02/11 15:01:18;;;;;;;25.83;11.98;;;;;;;10.35;80.24;98385.97;5029073;28;20032;-73
2022/02/11 15:03:44;;;;;;;22.35;10.85;;;;;;;10.35;79.59;98385.16;5048051;28;20020;-74
2022/02/11 15:06:10;;;;;;;21.83;11.02;;;;;;;10.38;79.71;98392.78;5037306;28;20059;-73
2022/02/11 15:08:35;;;;;;;20.30;10.93;;;;;;;10.43;79.66;98390.03;5044516;28;20035;-74
2022/02/11 15:11:01;;;;;;;21.17;10.30;;;;;;;10.38;79.38;98385.41;5041350;28;20115;-73